Time;durP1;ratioP1;P1;durP2;ratioP2;P2;SDS_P1;SDS_P2;PMS_P1;PMS_P2;Temp;Humidity;BMP_temperature;BMP_pressure;BME280_temperature;BME280_humidity;BME280_pressure;Samples;Min_cycle;Max_cycle;Signal;HPM_P1;HPM_P2
2023/02/16 00:00:25;;;;;;;20.93;16.53;;;9.80;94.40;;;;;;5051157;28;21024;-70
2023/02/16 00:02:51;;;;;;;25.03;18.33;;;9.80;94.10;;;;;;5048943;28;20438;-69
2023/02/16 00:05:26;;;;;;;24.47;18.37;;;9.70;94.10;;;;;;5051815;28;20973;-69
2023/02/16 00:07:53;;;;;;;20.77;15.87;;;9.70;94.20;;;;;;5052057;28;20173;-69
2023/02/16 00:10:19;;;;;;;24.77;17.70;;;9.80;94.10;;;;;;5051167;28;20890;-69
2023/02/16 00:15:29;;;;;;;22.67;16.60;;;9.60;94.00;;;;;;5053585;28;20163;-70
2023/02/16 00:17:59;;;;;;;23.67;16.23;;;9.50;93.90;;;;;;5054959;28;20781;-70
2023/02/16 00:20:24;;;;;;;23.03;18.50;;;9.50;93.80;;;;;;5054672;28;20205;-69
2023/02/16 00:22:50;;;;;;;29.00;19.23;;;9.40;94.10;;;;;;5053420;28;20437;-70
2023/02/16 00:25:16;;;;;;;25.90;18.43;;;9.40;94.70;;;;;;5055369;28;20427;-69
2023/02/16 00:27:42;;;;;;;23.47;18.23;;;9.40;94.80;;;;;;5055374;28;20475;-69
2023/02/16 00:30:16;;;;;;;21.87;17.47;;;9.40;94.60;;;;;;5055004;28;20452;-69
2023/02/16 00:32:45;;;;;;;25.40;17.77;;;9.30;94.60;;;;;;5055590;28;20403;-70
2023/02/16 00:35:15;;;;;;;21.60;16.50;;;9.20;95.10;;;;;;5053592;28;20519;-70
2023/02/16 00:37:40;;;;;;;23.73;17.50;;;9.20;94.70;;;;;;5045784;28;20491;-70
2023/02/16 00:40:07;;;;;;;26.70;17.53;;;9.10;94.70;;;;;;5035431;28;20460;-69
2023/02/16 00:42:33;;;;;;;24.47;17.23;;;9.10;94.60;;;;;;5040232;28;20225;-70
2023/02/16 00:44:59;;;;;;;27.37;18.57;;;9.00;94.50;;;;;;5042595;28;20445;-70
2023/02/16 00:47:39;;;;;;;25.07;18.83;;;8.90;95.30;;;;;;5034562;28;20441;-70
2023/02/16 00:50:16;;;;;;;21.90;17.77;;;8.90;95.60;;;;;;5034619;28;20898;-70
2023/02/16 00:52:45;;;;;;;25.10;19.20;;;8.90;95.90;;;;;;5035068;28;20423;-70
2023/02/16 00:55:16;;;;;;;22.30;17.57;;;8.90;95.80;;;;;;5035685;28;20441;-70
2023/02/16 01:02:04;;;;;;;22.67;17.70;;;8.80;96.20;;;;;;4932079;28;20451;-74
2023/02/16 01:04:30;;;;;;;25.30;18.33;;;8.80;96.70;;;;;;4974003;28;20401;-70
2023/02/16 01:12:24;;;;;;;26.20;18.50;;;8.70;97.10;;;;;;5029156;28;20475;-70
2023/02/16 01:14:53;;;;;;;23.90;18.23;;;8.70;97.40;;;;;;5052551;28;20452;-71
2023/02/16 01:17:19;;;;;;;26.23;18.93;;;8.70;97.40;;;;;;5035210;28;20182;-70
2023/02/16 01:19:44;;;;;;;25.47;18.23;;;8.70;97.20;;;;;;5034331;28;20456;-70
2023/02/16 01:22:10;;;;;;;24.40;18.00;;;8.80;97.20;;;;;;5033069;28;20432;-70
2023/02/16 01:24:36;;;;;;;25.77;18.90;;;8.80;97.30;;;;;;5034337;28;20179;-70
2023/02/16 01:27:02;;;;;;;26.43;17.90;;;8.90;97.10;;;;;;5047048;28;20257;-70
2023/02/16 01:29:27;;;;;;;27.70;18.80;;;8.90;97.00;;;;;;5042361;28;20198;-70
2023/02/16 01:31:53;;;;;;;23.50;17.67;;;8.90;96.50;;;;;;5034464;28;20186;-70
2023/02/16 01:34:19;;;;;;;22.90;17.07;;;8.80;95.70;;;;;;5051106;28;20553;-70
2023/02/16 01:36:47;;;;;;;26.10;16.63;;;8.70;96.00;;;;;;5052453;28;20177;-70
2023/02/16 01:39:15;;;;;;;26.00;18.70;;;8.80;96.20;;;;;;5052847;28;20184;-70
2023/02/16 01:41:53;;;;;;;25.10;18.80;;;8.60;96.30;;;;;;5054019;28;20459;-70
2023/02/16 01:44:42;;;;;;;28.10;18.97;;;8.60;96.50;;;;;;5052893;28;20403;-70
2023/02/16 01:47:36;;;;;;;26.80;17.80;;;8.60;96.50;;;;;;5041898;28;20436;-73
2023/02/16 01:50:21;;;;;;;21.33;16.70;;;8.50;96.80;;;;;;5053876;28;20397;-69
2023/02/16 01:53:00;;;;;;;26.80;18.57;;;8.50;96.80;;;;;;5053765;28;20404;-70
2023/02/16 01:55:31;;;;;;;21.90;17.13;;;8.40;96.90;;;;;;5052934;28;21026;-70
2023/02/16 01:57:59;;;;;;;26.33;17.70;;;8.40;96.50;;;;;;5052123;28;20432;-70
2023/02/16 02:00:57;;;;;;;27.27;18.07;;;8.30;96.60;;;;;;5052719;28;20463;-69
2023/02/16 02:06:15;;;;;;;23.93;18.23;;;8.30;96.90;;;;;;5050698;28;20430;-70
2023/02/16 02:08:54;;;;;;;28.13;18.83;;;8.30;96.70;;;;;;5048143;28;20936;-70
2023/02/16 02:11:38;;;;;;;25.13;18.77;;;8.20;97.20;;;;;;5054666;28;20420;-69
2023/02/16 02:14:10;;;;;;;23.53;17.53;;;8.20;97.40;;;;;;5054849;28;20418;-70
2023/02/16 02:16:36;;;;;;;28.17;19.50;;;8.10;97.70;;;;;;5054738;28;20868;-69
2023/02/16 02:19:02;;;;;;;25.70;19.50;;;8.10;97.90;;;;;;5051644;28;20428;-70
2023/02/16 02:24:34;;;;;;;24.00;17.20;;;8.10;98.60;;;;;;5054352;28;20423;-70
2023/02/16 02:27:03;;;;;;;30.10;18.97;;;8.00;98.00;;;;;;5054919;28;20407;-72
2023/02/16 02:29:45;;;;;;;27.30;19.17;;;8.00;97.90;;;;;;5050261;28;20436;-69
2023/02/16 02:32:35;;;;;;;26.07;19.00;;;8.00;98.00;;;;;;5054735;28;20393;-69
2023/02/16 02:35:05;;;;;;;25.57;19.17;;;7.90;98.10;;;;;;5054421;28;20475;-69
2023/02/16 02:37:52;;;;;;;24.13;18.77;;;7.90;98.00;;;;;;5052859;28;20451;-70
2023/02/16 02:40:28;;;;;;;27.63;19.33;;;7.90;98.40;;;;;;5044685;28;20487;-68
2023/02/16 02:43:12;;;;;;;28.90;19.57;;;7.90;98.70;;;;;;5034567;28;20413;-70
2023/02/16 02:46:11;;;;;;;27.03;19.93;;;7.90;98.90;;;;;;5016611;28;20512;-70
2023/02/16 02:48:37;;;;;;;26.80;18.77;;;7.90;99.20;;;;;;5016377;28;20460;-70
2023/02/16 02:51:27;;;;;;;30.40;20.20;;;7.90;99.40;;;;;;5033958;28;20924;-70
2023/02/16 03:02:57;;;;;;;29.27;19.90;;;7.90;99.20;;;;;;5054260;28;20440;-69
2023/02/16 03:05:25;;;;;;;24.07;18.50;;;7.90;99.60;;;;;;5052468;28;20519;-70
2023/02/16 03:08:13;;;;;;;29.03;19.67;;;8.00;99.90;;;;;;5053943;28;20413;-70
2023/02/16 03:13:40;;;;;;;24.70;19.23;;;8.00;99.40;;;;;;5034402;28;20830;-70
2023/02/16 03:16:37;;;;;;;24.37;17.90;;;8.00;99.10;;;;;;5034140;28;20499;-70
2023/02/16 03:30:11;;;;;;;28.17;18.10;;;7.80;98.10;;;;;;5032724;28;20446;-70
2023/02/16 03:32:38;;;;;;;23.57;18.10;;;7.70;98.30;;;;;;5034249;28;20483;-70
2023/02/16 03:35:04;;;;;;;25.43;17.77;;;7.70;98.40;;;;;;5033390;28;20964;-70
2023/02/16 03:37:30;;;;;;;22.63;17.50;;;7.70;98.70;;;;;;5033681;28;20412;-70
2023/02/16 03:42:48;;;;;;;26.20;19.00;;;7.70;99.30;;;;;;5050580;28;20463;-70
2023/02/16 03:45:13;;;;;;;24.87;17.73;;;7.60;98.80;;;;;;5052158;28;20787;-70
2023/02/16 03:47:39;;;;;;;27.47;19.27;;;7.60;98.80;;;;;;5035789;28;20415;-70
2023/02/16 03:53:56;;;;;;;24.50;18.07;;;7.50;99.40;;;;;;5037870;28;20194;-69
2023/02/16 03:56:22;;;;;;;27.50;18.70;;;7.40;99.50;;;;;;5058080;28;20444;-70
2023/02/16 03:58:48;;;;;;;30.40;19.60;;;7.40;99.90;;;;;;5055678;28;20536;-69
2023/02/16 04:01:14;;;;;;;28.70;17.97;;;7.40;99.90;;;;;;5043073;28;20227;-69
2023/02/16 04:03:39;;;;;;;27.67;18.40;;;7.40;99.90;;;;;;5057046;28;20418;-69
2023/02/16 04:06:05;;;;;;;27.17;18.23;;;7.40;99.90;;;;;;5057316;28;20271;-69
2023/02/16 04:08:31;;;;;;;26.60;18.97;;;7.40;99.90;;;;;;5057422;28;20169;-69
2023/02/16 04:10:57;;;;;;;26.40;18.40;;;7.40;99.90;;;;;;5057692;28;20423;-70
2023/02/16 04:13:23;;;;;;;25.00;18.33;;;7.40;99.90;;;;;;5042417;28;20197;-69
2023/02/16 04:15:49;;;;;;;26.13;19.60;;;7.40;99.90;;;;;;5020531;28;20448;-70
2023/02/16 04:18:15;;;;;;;23.43;18.20;;;7.40;99.90;;;;;;5057054;28;20878;-70
2023/02/16 04:20:41;;;;;;;28.87;18.67;;;7.40;99.90;;;;;;5055674;28;20288;-70
2023/02/16 04:23:07;;;;;;;25.90;18.10;;;7.50;99.90;;;;;;5055930;28;20479;-69
2023/02/16 04:25:33;;;;;;;23.37;17.87;;;7.50;99.90;;;;;;5035377;28;20463;-70
2023/02/16 04:27:58;;;;;;;24.53;17.97;;;7.50;99.90;;;;;;5051857;28;20197;-70
2023/02/16 04:30:28;;;;;;;24.90;17.40;;;7.50;99.90;;;;;;5055604;28;20776;-70
2023/02/16 04:32:55;;;;;;;25.13;18.00;;;7.50;99.80;;;;;;5052507;28;20184;-71
2023/02/16 04:35:21;;;;;;;23.93;17.10;;;7.40;99.30;;;;;;5050832;28;20436;-70
2023/02/16 04:37:47;;;;;;;22.90;17.50;;;7.40;99.40;;;;;;5033479;28;20444;-70
2023/02/16 04:40:14;;;;;;;25.23;17.90;;;7.40;99.70;;;;;;5038322;28;20478;-70
2023/02/16 04:42:42;;;;;;;27.70;18.70;;;7.30;99.90;;;;;;5073355;28;20459;-70
2023/02/16 04:45:08;;;;;;;26.73;17.93;;;7.30;99.90;;;;;;5075611;28;20786;-70
2023/02/16 04:47:34;;;;;;;21.17;16.53;;;7.30;99.90;;;;;;5075500;28;20427;-70
2023/02/16 04:50:00;;;;;;;26.00;18.30;;;7.30;99.90;;;;;;5062575;28;20449;-71
2023/02/16 04:52:26;;;;;;;27.27;18.33;;;7.20;99.90;;;;;;5076491;28;20203;-70
2023/02/16 04:54:51;;;;;;;31.10;19.60;;;7.20;99.90;;;;;;5057424;28;20214;-70
2023/02/16 04:57:18;;;;;;;26.10;17.90;;;7.20;99.90;;;;;;5073409;28;20704;-70
2023/02/16 04:59:44;;;;;;;25.77;19.60;;;7.30;99.90;;;;;;5058222;28;20211;-70
2023/02/16 05:02:09;;;;;;;24.40;18.87;;;7.20;99.90;;;;;;5053867;28;20526;-70
2023/02/16 05:04:35;;;;;;;26.80;20.20;;;7.20;99.90;;;;;;5038097;28;20187;-70
2023/02/16 05:07:01;;;;;;;25.13;19.00;;;7.20;99.90;;;;;;5068192;28;20187;-70
2023/02/16 05:09:27;;;;;;;26.77;18.73;;;7.30;99.90;;;;;;5074861;28;20946;-70
2023/02/16 05:14:46;;;;;;;27.10;18.97;;;7.20;99.90;;;;;;5076206;28;20172;-70
2023/02/16 05:17:18;;;;;;;27.37;19.40;;;7.20;99.90;;;;;;5074587;28;20524;-69
2023/02/16 05:19:46;;;;;;;29.37;19.37;;;7.20;99.90;;;;;;5067480;28;20910;-70
2023/02/16 05:22:13;;;;;;;28.77;18.70;;;7.20;99.90;;;;;;5070972;28;20435;-70
2023/02/16 05:24:39;;;;;;;25.80;18.20;;;7.30;99.90;;;;;;5060760;28;20803;-70
2023/02/16 05:27:08;;;;;;;28.00;19.50;;;7.30;99.90;;;;;;5067000;28;20442;-71
2023/02/16 05:29:34;;;;;;;27.13;18.40;;;7.30;99.90;;;;;;5072588;28;20432;-71
2023/02/16 05:32:00;;;;;;;27.43;19.00;;;7.30;99.90;;;;;;5061812;28;20435;-72
2023/02/16 05:34:26;;;;;;;26.73;17.90;;;7.40;99.90;;;;;;5063322;28;20935;-71
2023/02/16 05:36:52;;;;;;;26.33;19.03;;;7.30;99.90;;;;;;5059320;28;20442;-66
2023/02/16 05:39:18;;;;;;;25.50;18.57;;;7.30;99.90;;;;;;5071526;28;20438;-66
2023/02/16 05:41:44;;;;;;;24.10;19.30;;;7.30;99.90;;;;;;5069275;28;20590;-65
2023/02/16 05:44:10;;;;;;;30.37;19.53;;;7.20;99.90;;;;;;5061058;28;20863;-65
2023/02/16 05:46:38;;;;;;;24.93;18.43;;;7.20;99.90;;;;;;5074202;28;20208;-65
2023/02/16 05:49:05;;;;;;;25.40;19.10;;;7.20;99.90;;;;;;5074173;28;20540;-65
2023/02/16 05:51:31;;;;;;;28.33;18.50;;;7.20;99.90;;;;;;5075386;28;20505;-65
2023/02/16 05:53:57;;;;;;;29.00;19.60;;;7.20;99.90;;;;;;5073264;28;20439;-66
2023/02/16 05:56:24;;;;;;;28.60;20.40;;;7.20;99.90;;;;;;5074019;28;20786;-66
2023/02/16 05:58:49;;;;;;;27.77;19.70;;;7.20;99.90;;;;;;5073991;28;20478;-66
2023/02/16 06:01:15;;;;;;;27.70;19.47;;;7.10;99.90;;;;;;5075055;28;20485;-68
2023/02/16 06:03:41;;;;;;;28.50;20.10;;;7.20;99.90;;;;;;5075845;28;20195;-66
2023/02/16 06:06:08;;;;;;;24.23;18.60;;;7.10;99.90;;;;;;5073922;28;20759;-64
2023/02/16 06:08:35;;;;;;;28.63;18.90;;;7.10;99.90;;;;;;5065578;28;20446;-67
2023/02/16 06:11:00;;;;;;;36.43;19.57;;;7.10;99.90;;;;;;5057681;28;20442;-65
2023/02/16 06:13:26;;;;;;;29.10;20.27;;;7.10;99.90;;;;;;5065358;28;20887;-65
2023/02/16 06:15:54;;;;;;;28.17;20.07;;;7.10;99.90;;;;;;5074800;28;20171;-65
2023/02/16 06:18:21;;;;;;;24.17;17.17;;;7.10;99.90;;;;;;5073354;28;20176;-66
2023/02/16 06:20:47;;;;;;;32.03;20.50;;;7.10;99.90;;;;;;5054785;28;20491;-65
2023/02/16 06:23:13;;;;;;;30.77;21.07;;;7.20;99.90;;;;;;5052992;28;20416;-66
2023/02/16 06:25:44;;;;;;;29.53;20.67;;;7.10;99.90;;;;;;5054569;28;20430;-65
2023/02/16 06:28:10;;;;;;;27.47;19.80;;;7.10;99.90;;;;;;5069920;28;20440;-66
2023/02/16 06:30:36;;;;;;;28.87;20.10;;;7.20;99.90;;;;;;5069931;28;20434;-66
2023/02/16 06:33:02;;;;;;;27.57;19.23;;;7.20;99.90;;;;;;5069788;28;20435;-68
2023/02/16 06:35:29;;;;;;;30.23;19.23;;;7.20;99.90;;;;;;5072413;28;20439;-66
2023/02/16 06:37:54;;;;;;;29.77;20.73;;;7.20;99.90;;;;;;5073604;28;20434;-65
2023/02/16 06:40:20;;;;;;;34.67;21.70;;;7.40;99.90;;;;;;5055912;28;20471;-65
2023/02/16 06:42:48;;;;;;;27.90;20.93;;;7.40;99.90;;;;;;5044076;28;20180;-66
2023/02/16 06:45:14;;;;;;;29.40;20.67;;;7.40;99.90;;;;;;5046067;28;20547;-66
2023/02/16 06:47:40;;;;;;;32.90;21.20;;;7.40;99.90;;;;;;5049045;28;20531;-66
2023/02/16 06:50:08;;;;;;;28.77;20.53;;;7.50;99.90;;;;;;5042835;28;20216;-66
2023/02/16 06:52:34;;;;;;;28.27;20.23;;;7.50;99.90;;;;;;5048119;28;20185;-66
2023/02/16 06:55:00;;;;;;;29.77;20.53;;;7.60;99.90;;;;;;5038472;28;20432;-67
2023/02/16 06:57:32;;;;;;;26.10;19.80;;;7.60;99.90;;;;;;5053647;28;20465;-65
2023/02/16 06:59:58;;;;;;;25.73;19.30;;;7.60;99.90;;;;;;5052800;28;20471;-65
2023/02/16 07:02:24;;;;;;;28.30;20.70;;;7.60;99.90;;;;;;5051998;28;20431;-65
2023/02/16 07:04:49;;;;;;;28.97;20.93;;;7.70;99.90;;;;;;5035198;28;20311;-67
2023/02/16 07:07:15;;;;;;;31.03;23.10;;;7.70;99.90;;;;;;5036818;28;20183;-66
2023/02/16 07:09:41;;;;;;;31.10;20.67;;;7.80;99.90;;;;;;5035001;28;20208;-71
2023/02/16 07:12:06;;;;;;;28.07;20.97;;;7.80;99.90;;;;;;5040976;28;20744;-66
2023/02/16 07:14:32;;;;;;;29.80;22.00;;;7.90;99.90;;;;;;5022026;28;20259;-67
2023/02/16 07:17:01;;;;;;;30.03;20.67;;;7.90;99.90;;;;;;5044587;28;20629;-67
2023/02/16 07:19:31;;;;;;;27.00;19.30;;;7.90;99.90;;;;;;5037373;28;20188;-65
2023/02/16 07:21:57;;;;;;;25.17;19.53;;;7.90;99.90;;;;;;5053704;28;20419;-65
2023/02/16 07:24:23;;;;;;;30.13;22.00;;;7.90;99.90;;;;;;5049485;28;20923;-65
2023/02/16 07:26:48;;;;;;;27.27;20.33;;;8.00;99.90;;;;;;5039530;28;20443;-66
2023/02/16 07:29:14;;;;;;;28.07;20.13;;;8.00;99.90;;;;;;5043072;28;20186;-65
2023/02/16 07:31:40;;;;;;;27.30;20.10;;;8.00;99.90;;;;;;5050516;28;20189;-65
2023/02/16 07:34:05;;;;;;;29.60;20.07;;;8.10;99.90;;;;;;5052443;28;20181;-65
2023/02/16 07:36:31;;;;;;;29.67;20.70;;;8.20;99.90;;;;;;5033900;28;20535;-67
2023/02/16 07:38:57;;;;;;;32.43;23.70;;;8.40;99.90;;;;;;5053528;28;20260;-67
2023/02/16 07:41:22;;;;;;;29.60;22.67;;;9.10;99.90;;;;;;5052271;28;20245;-67
2023/02/16 07:43:48;;;;;;;29.57;23.20;;;9.80;99.90;;;;;;5052092;28;20205;-67
2023/02/16 07:46:14;;;;;;;33.20;23.17;;;10.40;99.90;;;;;;5043431;28;20520;-70
2023/02/16 07:48:39;;;;;;;35.93;24.03;;;10.90;99.90;;;;;;5033863;28;20173;-67
2023/02/16 07:51:06;;;;;;;30.73;22.10;;;11.30;99.90;;;;;;5033003;28;20211;-68
2023/02/16 07:53:31;;;;;;;26.43;21.50;;;11.80;99.90;;;;;;5052699;28;20272;-67
2023/02/16 07:55:57;;;;;;;37.43;24.20;;;12.10;99.50;;;;;;5052009;28;20926;-67
2023/02/16 07:58:26;;;;;;;48.20;27.90;;;12.50;98.20;;;;;;5052154;28;20543;-68
2023/02/16 08:00:56;;;;;;;44.03;24.00;;;12.80;96.50;;;;;;5035421;28;20221;-68
2023/02/16 08:03:23;;;;;;;36.43;24.10;;;13.00;94.90;;;;;;5018057;28;20443;-69
2023/02/16 08:05:48;;;;;;;41.00;26.03;;;12.90;92.20;;;;;;5052117;28;20443;-68
2023/02/16 08:08:14;;;;;;;35.43;25.47;;;12.70;90.70;;;;;;5049086;28;20428;-69
2023/02/16 08:10:40;;;;;;;37.97;24.13;;;12.40;90.30;;;;;;5034190;28;20201;-69
2023/02/16 08:13:05;;;;;;;32.80;22.57;;;12.10;90.70;;;;;;5015289;28;20195;-69
2023/02/16 08:15:31;;;;;;;36.53;24.40;;;11.80;91.50;;;;;;5019917;28;20193;-68
2023/02/16 08:17:57;;;;;;;34.53;24.40;;;11.50;92.80;;;;;;5022002;28;20182;-79
2023/02/16 08:20:23;;;;;;;27.83;23.93;;;11.20;93.40;;;;;;5046152;28;20224;-69
2023/02/16 08:22:48;;;;;;;30.87;21.37;;;11.00;94.00;;;;;;5052015;28;20443;-68
2023/02/16 08:25:14;;;;;;;28.83;22.23;;;10.90;94.80;;;;;;5052860;28;20174;-68
2023/02/16 08:27:45;;;;;;;30.90;21.00;;;10.70;95.00;;;;;;5034050;28;20181;-75
2023/02/16 08:30:12;;;;;;;29.73;20.80;;;10.60;94.90;;;;;;5051514;28;20494;-68
2023/02/16 08:32:42;;;;;;;24.67;19.97;;;10.50;94.10;;;;;;5034109;28;20193;-68
2023/02/16 08:35:08;;;;;;;26.77;19.83;;;10.40;94.10;;;;;;5053262;28;20422;-68
2023/02/16 08:37:37;;;;;;;33.10;21.90;;;10.30;95.00;;;;;;5054743;28;20529;-68
2023/02/16 08:40:04;;;;;;;27.07;19.60;;;10.30;96.50;;;;;;5055642;28;20480;-68
2023/02/16 08:42:30;;;;;;;34.97;23.10;;;10.30;96.90;;;;;;5072390;28;20496;-70
2023/02/16 08:45:03;;;;;;;29.00;20.37;;;10.30;98.30;;;;;;5064091;28;20879;-68
2023/02/16 08:47:29;;;;;;;26.97;20.23;;;10.30;98.30;;;;;;5060578;28;20208;-68
2023/02/16 08:49:55;;;;;;;28.37;21.30;;;10.30;98.10;;;;;;5077055;28;20414;-69
2023/02/16 08:52:21;;;;;;;28.43;21.70;;;10.30;98.10;;;;;;5075140;28;20523;-68
2023/02/16 08:54:47;;;;;;;26.90;22.27;;;10.30;99.40;;;;;;5075243;28;20187;-76
2023/02/16 08:57:13;;;;;;;31.43;22.97;;;10.40;99.90;;;;;;5076055;28;20686;-68
2023/02/16 08:59:39;;;;;;;30.20;21.37;;;10.40;99.90;;;;;;5075057;28;20471;-68
2023/02/16 09:11:15;;;;;;;799.73;589.90;;;10.40;99.90;;;;;;5142948;23;20477;-65
2023/02/16 09:13:42;;;;;;;75.27;53.33;;;10.50;99.90;;;;;;4994741;28;20437;-65
2023/02/16 09:16:14;;;;;;;35.77;25.50;;;10.50;99.90;;;;;;4978960;28;20411;-64
2023/02/16 09:18:40;;;;;;;27.63;21.30;;;10.50;99.90;;;;;;4994039;28;20566;-64
2023/02/16 09:21:18;;;;;;;27.93;21.67;;;10.50;99.90;;;;;;4995034;28;20468;-71
2023/02/16 09:23:47;;;;;;;27.27;21.93;;;10.60;99.90;;;;;;4994941;28;20395;-65
2023/02/16 09:26:14;;;;;;;23.57;19.07;;;10.60;98.80;;;;;;4994986;28;20409;-65
2023/02/16 09:28:40;;;;;;;19.53;15.63;;;10.70;97.30;;;;;;4994173;28;20474;-66
2023/02/16 09:31:24;;;;;;;21.30;16.37;;;10.70;96.20;;;;;;4994807;28;20416;-65
2023/02/16 09:33:51;;;;;;;23.53;15.47;;;10.80;95.30;;;;;;4995145;28;20410;-65
2023/02/16 09:36:17;;;;;;;19.63;15.00;;;11.00;94.90;;;;;;4994570;28;20428;-65
2023/02/16 09:38:43;;;;;;;21.77;16.43;;;11.00;94.60;;;;;;4993671;28;20442;-65
2023/02/16 09:41:48;;;;;;;20.13;16.40;;;11.00;94.70;;;;;;4992355;28;20502;-65
2023/02/16 09:44:27;;;;;;;20.53;17.57;;;11.10;94.10;;;;;;4993833;28;20445;-65
2023/02/16 09:46:57;;;;;;;20.47;17.23;;;11.30;93.60;;;;;;4994319;28;20456;-65
2023/02/16 09:49:36;;;;;;;18.83;15.80;;;11.50;92.80;;;;;;4993282;28;20411;-65
2023/02/16 09:52:33;;;;;;;23.17;16.90;;;11.70;92.20;;;;;;4977512;28;20757;-65
2023/02/16 09:55:00;;;;;;;20.90;17.43;;;11.90;91.70;;;;;;4995028;28;20398;-65
2023/02/16 09:57:43;;;;;;;18.23;16.30;;;12.30;90.80;;;;;;4994218;28;20420;-65
2023/02/16 10:00:24;;;;;;;20.20;16.50;;;12.70;89.60;;;;;;4992821;28;20464;-65
2023/02/16 10:03:04;;;;;;;23.50;17.80;;;13.10;87.60;;;;;;4993548;28;20445;-65
2023/02/16 10:05:40;;;;;;;18.77;15.90;;;13.00;85.20;;;;;;4993549;28;20524;-65
2023/02/16 10:08:12;;;;;;;20.40;16.47;;;13.00;84.70;;;;;;4993950;28;20435;-65
2023/02/16 10:10:41;;;;;;;20.37;18.30;;;13.00;85.40;;;;;;4993070;28;20408;-68
2023/02/16 10:13:24;;;;;;;21.63;17.37;;;12.90;84.40;;;;;;4994070;28;20435;-65
2023/02/16 10:15:53;;;;;;;20.13;17.93;;;12.80;85.10;;;;;;4993249;28;20795;-65
2023/02/16 10:18:28;;;;;;;21.07;16.33;;;12.80;85.50;;;;;;4993957;28;20426;-65
2023/02/16 10:20:57;;;;;;;22.30;17.00;;;12.80;86.70;;;;;;4993733;28;20812;-65
2023/02/16 10:23:30;;;;;;;22.23;19.50;;;12.70;86.60;;;;;;4993212;28;20480;-66
2023/02/16 10:26:11;;;;;;;19.10;17.10;;;12.60;86.50;;;;;;4993751;28;20435;-65
2023/02/16 10:28:59;;;;;;;21.13;16.97;;;12.60;88.10;;;;;;4993561;28;21040;-65
2023/02/16 10:31:42;;;;;;;19.40;17.00;;;12.50;87.40;;;;;;4992864;28;20434;-65
2023/02/16 10:34:24;;;;;;;18.23;16.33;;;12.40;88.00;;;;;;4994196;28;20417;-65
2023/02/16 10:37:02;;;;;;;20.83;16.63;;;12.50;88.10;;;;;;4994315;28;20402;-65
2023/02/16 10:39:40;;;;;;;22.73;19.13;;;12.50;89.00;;;;;;4992793;28;20460;-65
2023/02/16 10:42:35;;;;;;;19.87;16.33;;;12.50;88.90;;;;;;4993087;28;20481;-65
2023/02/16 10:45:14;;;;;;;21.57;16.83;;;12.50;89.10;;;;;;4993942;28;20450;-65
2023/02/16 10:47:42;;;;;;;21.60;19.37;;;12.60;89.30;;;;;;4992163;28;20540;-65
2023/02/16 10:50:57;;;;;;;21.33;16.93;;;12.50;89.10;;;;;;4992813;28;20799;-65
2023/02/16 10:53:49;;;;;;;18.90;16.30;;;12.50;89.30;;;;;;4992463;28;20446;-72
2023/02/16 10:56:41;;;;;;;19.80;16.53;;;12.60;90.20;;;;;;4985977;28;20442;-65
2023/02/16 10:59:18;;;;;;;20.93;18.13;;;12.60;90.10;;;;;;4992747;28;20499;-65
2023/02/16 11:01:47;;;;;;;20.53;17.33;;;12.50;90.40;;;;;;4992027;28;20565;-69
2023/02/16 11:04:38;;;;;;;21.30;19.10;;;12.50;93.70;;;;;;4990595;28;20496;-69
2023/02/16 11:07:09;;;;;;;19.50;17.03;;;12.60;93.80;;;;;;4983463;28;20428;-69
2023/02/16 11:09:36;;;;;;;22.30;17.80;;;12.90;92.90;;;;;;4992621;28;20764;-69
2023/02/16 11:12:14;;;;;;;42.37;31.80;;;13.10;93.90;;;;;;4992132;28;20469;-70
2023/02/16 11:14:46;;;;;;;37.90;27.97;;;13.10;92.30;;;;;;4991855;28;20474;-71
2023/02/16 11:17:16;;;;;;;21.23;19.03;;;13.30;92.20;;;;;;4993472;28;20414;-71
2023/02/16 11:20:04;;;;;;;23.23;19.40;;;13.40;91.40;;;;;;4991546;28;20938;-71
2023/02/16 11:22:33;;;;;;;25.30;20.27;;;13.60;91.30;;;;;;4991024;28;20433;-70
2023/02/16 11:25:31;;;;;;;24.93;19.77;;;13.60;91.50;;;;;;4975527;28;20431;-71
2023/02/16 11:28:04;;;;;;;23.33;18.83;;;13.50;93.50;;;;;;4951277;28;20449;-70
2023/02/16 11:30:35;;;;;;;22.00;18.80;;;13.80;93.40;;;;;;4988220;28;20442;-72
2023/02/16 11:33:05;;;;;;;22.90;20.30;;;14.10;93.00;;;;;;4991895;28;20541;-71
2023/02/16 11:35:40;;;;;;;23.60;20.57;;;14.30;92.30;;;;;;4991856;28;20901;-72
2023/02/16 11:38:27;;;;;;;24.43;18.33;;;14.40;92.30;;;;;;4975734;28;20410;-71
2023/02/16 11:40:54;;;;;;;24.07;17.60;;;14.60;90.50;;;;;;4992025;28;20586;-71
2023/02/16 11:43:20;;;;;;;22.23;19.83;;;14.80;90.00;;;;;;4992048;28;20450;-72
2023/02/16 11:46:10;;;;;;;24.60;19.43;;;14.80;88.90;;;;;;4992137;28;20418;-71
2023/02/16 11:48:36;;;;;;;22.83;18.57;;;15.00;90.00;;;;;;4991602;28;20442;-71
2023/02/16 11:51:08;;;;;;;22.67;20.43;;;15.10;89.40;;;;;;4991705;28;20930;-71
2023/02/16 11:53:36;;;;;;;24.57;19.03;;;15.30;88.50;;;;;;4991917;28;20431;-72
2023/02/16 11:56:28;;;;;;;22.43;19.67;;;15.30;86.20;;;;;;4991828;28;20444;-71
2023/02/16 11:59:11;;;;;;;23.13;20.00;;;15.50;86.90;;;;;;4960968;28;20445;-71
2023/02/16 12:01:40;;;;;;;21.13;17.80;;;15.70;88.00;;;;;;4977875;28;20532;-71
2023/02/16 12:04:33;;;;;;;24.57;20.30;;;15.80;87.40;;;;;;4973518;28;20414;-71
2023/02/16 12:07:07;;;;;;;23.27;20.77;;;15.90;85.60;;;;;;4988523;28;20443;-71
2023/02/16 12:09:53;;;;;;;117.87;85.57;;;16.00;85.20;;;;;;4991142;28;20428;-72
2023/02/16 12:12:35;;;;;;;253.37;188.37;;;16.10;85.90;;;;;;4994611;28;20484;-72
2023/02/16 12:15:42;;;;;;;25.17;21.30;;;16.20;86.80;;;;;;4996391;28;20467;-71
2023/02/16 12:18:42;;;;;;;23.57;19.20;;;16.20;85.80;;;;;;4935925;29;20447;-71
2023/02/16 12:21:33;;;;;;;22.20;19.00;;;16.10;87.10;;;;;;4928347;28;20980;-71
2023/02/16 12:24:16;;;;;;;24.50;21.10;;;16.00;86.40;;;;;;4995476;28;20449;-70
2023/02/16 12:26:53;;;;;;;21.80;19.50;;;16.00;86.70;;;;;;4994610;28;20438;-71
2023/02/16 12:29:37;;;;;;;24.17;20.93;;;16.10;89.50;;;;;;4996141;28;20513;-71
2023/02/16 12:32:33;;;;;;;21.97;19.60;;;16.20;87.60;;;;;;4976644;28;20431;-71
2023/02/16 12:35:36;;;;;;;22.43;20.03;;;16.20;88.00;;;;;;4994269;28;20442;-70
2023/02/16 12:38:05;;;;;;;21.70;19.40;;;16.30;89.30;;;;;;4995011;28;21000;-71
2023/02/16 12:40:37;;;;;;;23.70;21.17;;;16.40;88.50;;;;;;4994941;28;20517;-77
2023/02/16 12:43:38;;;;;;;21.97;19.70;;;16.30;88.10;;;;;;4996108;28;20433;-71
2023/02/16 12:46:22;;;;;;;23.80;19.87;;;16.30;89.20;;;;;;4995818;28;20421;-70
2023/02/16 12:48:49;;;;;;;22.33;19.60;;;16.30;90.00;;;;;;4994423;28;20842;-71
2023/02/16 12:51:22;;;;;;;23.10;20.53;;;16.20;90.10;;;;;;4994995;28;20442;-70
2023/02/16 12:54:19;;;;;;;25.10;20.10;;;16.20;90.40;;;;;;4994941;28;20434;-70
2023/02/16 12:56:56;;;;;;;22.23;19.93;;;16.30;90.30;;;;;;4994410;28;20434;-71
2023/02/16 12:59:54;;;;;;;23.73;18.93;;;16.30;90.50;;;;;;4994910;28;20535;-70
2023/02/16 13:02:23;;;;;;;25.20;22.50;;;16.30;90.40;;;;;;4994790;28;20457;-71
2023/02/16 13:05:07;;;;;;;297.47;188.63;;;16.30;90.80;;;;;;4994123;28;20532;-71
2023/02/16 13:07:41;;;;;;;45.53;35.17;;;16.40;91.10;;;;;;4995067;28;20410;-71
2023/02/16 13:10:39;;;;;;;24.97;22.40;;;16.50;90.70;;;;;;4988490;28;20443;-71
2023/02/16 13:13:13;;;;;;;21.70;19.50;;;16.50;90.30;;;;;;4974777;28;20537;-71
2023/02/16 13:15:49;;;;;;;21.10;18.90;;;16.40;89.90;;;;;;4984028;28;20446;-71
2023/02/16 13:18:18;;;;;;;21.77;19.53;;;16.40;90.80;;;;;;4982827;28;20412;-71
2023/02/16 13:20:51;;;;;;;25.37;21.20;;;16.40;90.30;;;;;;4984465;28;20469;-71
2023/02/16 13:23:41;;;;;;;24.97;21.37;;;16.50;90.50;;;;;;4984530;28;20416;-71
2023/02/16 13:26:36;;;;;;;21.60;19.40;;;16.60;90.70;;;;;;4986292;28;20427;-71
2023/02/16 13:29:21;;;;;;;21.33;19.03;;;16.60;90.40;;;;;;4967912;28;20445;-70
2023/02/16 13:32:09;;;;;;;22.00;18.97;;;16.60;90.50;;;;;;4982591;28;20785;-71
2023/02/16 13:34:44;;;;;;;20.30;18.00;;;16.50;89.90;;;;;;4982412;28;20442;-71
2023/02/16 13:37:22;;;;;;;25.37;19.47;;;16.60;89.60;;;;;;4981673;28;20798;-71
2023/02/16 13:40:17;;;;;;;21.63;18.83;;;16.60;89.10;;;;;;4984200;28;20460;-71
2023/02/16 13:42:46;;;;;;;23.33;20.83;;;16.60;89.50;;;;;;4980002;28;20527;-71
2023/02/16 13:45:23;;;;;;;19.93;17.60;;;16.60;90.80;;;;;;4983398;28;20442;-72
2023/02/16 13:47:52;;;;;;;20.07;17.97;;;16.60;89.50;;;;;;4980383;28;20798;-71
2023/02/16 13:50:23;;;;;;;21.90;19.47;;;16.70;90.20;;;;;;4983468;28;20603;-70
2023/02/16 13:52:55;;;;;;;23.50;20.53;;;16.60;89.50;;;;;;4982248;28;20514;-68
2023/02/16 13:55:33;;;;;;;23.93;19.17;;;16.50;88.20;;;;;;4982216;28;20466;-69
2023/02/16 13:58:11;;;;;;;23.70;21.00;;;16.50;89.80;;;;;;4985055;28;20411;-71